createdAt,value
2022-09-12T00:02:15.663Z,99.90
2022-09-12T00:04:42.432Z,99.90
2022-09-12T00:07:09.067Z,99.90
2022-09-12T00:09:35.695Z,99.90
2022-09-12T00:12:02.599Z,99.90
2022-09-12T00:14:29.539Z,99.90
2022-09-12T00:17:00.092Z,99.90
2022-09-12T00:19:28.034Z,99.90
2022-09-12T00:21:55.393Z,99.90
2022-09-12T00:24:22.704Z,99.90
2022-09-12T00:26:49.538Z,99.90
2022-09-12T00:29:18.285Z,99.90
2022-09-12T00:31:45.304Z,99.90
2022-09-12T00:34:12.478Z,99.90
2022-09-12T00:36:39.836Z,99.90
2022-09-12T00:39:07.862Z,99.90
2022-09-12T00:41:38.137Z,99.90
2022-09-12T00:44:24.680Z,99.90
2022-09-12T00:47:00.948Z,99.90
2022-09-12T00:50:04.794Z,99.90
2022-09-12T00:52:42.619Z,99.90
2022-09-12T00:55:17.457Z,99.90
2022-09-12T00:57:51.214Z,99.90
2022-09-12T01:00:21.306Z,99.90
2022-09-12T01:02:57.955Z,99.90
2022-09-12T01:05:26.234Z,99.90
2022-09-12T01:07:54.284Z,99.90
2022-09-12T01:10:21.150Z,99.90
2022-09-12T01:12:48.735Z,99.90
2022-09-12T01:15:15.486Z,99.90
2022-09-12T01:18:07.688Z,99.90
2022-09-12T01:21:01.660Z,99.90
2022-09-12T01:24:06.215Z,99.90
2022-09-12T01:27:07.990Z,99.90
2022-09-12T01:29:46.526Z,99.90
2022-09-12T01:32:31.440Z,99.90
2022-09-12T01:35:22.893Z,99.90
2022-09-12T01:38:09.947Z,99.90
2022-09-12T01:40:58.841Z,99.90
2022-09-12T01:43:43.110Z,99.90
2022-09-12T01:46:45.398Z,99.90
2022-09-12T01:49:21.949Z,99.90
2022-09-12T01:51:55.429Z,99.90
2022-09-12T01:54:50.325Z,99.90
2022-09-12T01:57:29.363Z,99.90
2022-09-12T02:00:01.624Z,99.90
2022-09-12T02:02:35.200Z,99.90
2022-09-12T02:05:10.783Z,99.90
2022-09-12T02:08:14.106Z,99.90
2022-09-12T02:10:47.160Z,99.90
2022-09-12T02:13:21.777Z,99.90
2022-09-12T02:15:55.701Z,99.90
2022-09-12T02:18:25.553Z,99.90
2022-09-12T02:20:53.194Z,99.90
2022-09-12T02:23:24.333Z,99.90
2022-09-12T02:25:54.834Z,99.90
2022-09-12T02:28:42.690Z,99.90
2022-09-12T02:31:14.165Z,99.90
2022-09-12T02:34:04.722Z,99.90
2022-09-12T02:36:50.171Z,99.90
2022-09-12T02:39:20.041Z,99.90
2022-09-12T02:41:55.625Z,99.90
2022-09-12T02:44:24.308Z,99.90
2022-09-12T02:46:55.784Z,99.90
2022-09-12T02:49:22.833Z,99.90
2022-09-12T02:51:50.013Z,99.90
2022-09-12T02:54:19.152Z,99.90
2022-09-12T02:56:46.443Z,99.90
2022-09-12T02:59:17.822Z,99.90
2022-09-12T03:01:59.542Z,99.90
2022-09-12T03:04:41.248Z,99.90
2022-09-12T03:07:20.049Z,99.90
2022-09-12T03:09:59.350Z,99.90
2022-09-12T03:12:56.030Z,99.90
2022-09-12T03:15:41.011Z,99.90
2022-09-12T03:18:39.789Z,99.90
2022-09-12T03:21:16.342Z,99.90
2022-09-12T03:24:18.992Z,99.90
2022-09-12T03:26:57.741Z,99.90
2022-09-12T03:29:26.288Z,99.90
2022-09-12T03:31:55.645Z,99.90
2022-09-12T03:34:24.066Z,99.90
2022-09-12T03:36:51.076Z,99.90
2022-09-12T03:39:18.373Z,99.90
2022-09-12T03:41:45.071Z,99.90
2022-09-12T03:44:11.682Z,99.90
2022-09-12T03:46:38.314Z,99.90
2022-09-12T03:49:05.964Z,99.90
2022-09-12T03:51:32.567Z,99.90
2022-09-12T03:53:59.199Z,99.90
2022-09-12T03:56:25.916Z,99.90
2022-09-12T03:58:52.584Z,99.90
2022-09-12T04:01:20.609Z,99.90
2022-09-12T04:03:51.976Z,99.90
2022-09-12T04:06:21.129Z,99.90
2022-09-12T04:08:53.088Z,99.90
2022-09-12T04:11:21.655Z,99.90
2022-09-12T04:13:48.635Z,99.90
2022-09-12T04:16:16.675Z,99.90
2022-09-12T04:18:43.640Z,99.90
2022-09-12T04:21:18.797Z,99.90
2022-09-12T04:23:45.757Z,99.90
2022-09-12T04:26:13.821Z,99.90
2022-09-12T04:28:41.178Z,99.90
2022-09-12T04:31:15.519Z,99.90
2022-09-12T04:33:42.185Z,99.90
2022-09-12T04:36:14.491Z,99.90
2022-09-12T04:38:41.134Z,99.90
2022-09-12T04:41:16.089Z,99.90
2022-09-12T04:43:46.254Z,99.90
2022-09-12T04:46:15.418Z,99.90
2022-09-12T04:48:42.934Z,99.90
2022-09-12T04:51:13.622Z,99.90
2022-09-12T04:53:41.328Z,99.90
2022-09-12T04:56:10.508Z,99.90
2022-09-12T04:58:38.145Z,99.90
2022-09-12T05:01:13.375Z,99.90
2022-09-12T05:03:43.299Z,99.90
2022-09-12T05:06:13.172Z,99.90
2022-09-12T05:08:39.867Z,99.90
2022-09-12T05:11:10.531Z,99.90
2022-09-12T05:13:37.907Z,99.90
2022-09-12T05:16:06.422Z,99.90
2022-09-12T05:18:35.020Z,99.90
2022-09-12T05:21:04.089Z,99.90
2022-09-12T05:23:31.359Z,99.90
2022-09-12T05:25:59.815Z,99.90
2022-09-12T05:28:30.567Z,99.90
2022-09-12T05:31:06.879Z,99.90
2022-09-12T05:33:35.383Z,99.90
2022-09-12T05:36:03.598Z,99.90
2022-09-12T05:38:30.514Z,99.90
2022-09-12T05:41:21.872Z,99.90
2022-09-12T05:43:56.318Z,99.90
2022-09-12T05:46:25.725Z,99.90
2022-09-12T05:48:56.325Z,99.90
2022-09-12T05:51:28.790Z,99.90
2022-09-12T05:54:00.272Z,99.90
2022-09-12T05:56:29.717Z,99.90
2022-09-12T05:59:01.991Z,99.90
2022-09-12T06:01:30.484Z,99.90
2022-09-12T06:04:00.851Z,99.90
2022-09-12T06:06:28.689Z,99.90
2022-09-12T06:09:05.937Z,99.90
2022-09-12T06:11:34.749Z,99.90
2022-09-12T06:14:01.761Z,99.90
2022-09-12T06:16:31.005Z,99.90
2022-09-12T06:19:12.556Z,99.90
2022-09-12T06:21:39.933Z,99.90
2022-09-12T06:24:07.587Z,99.90
2022-09-12T06:26:34.573Z,99.90
2022-09-12T06:29:01.952Z,99.90
2022-09-12T06:31:37.243Z,99.90
2022-09-12T06:34:07.065Z,99.90
2022-09-12T06:36:38.943Z,99.90
2022-09-12T06:39:08.872Z,99.90
2022-09-12T06:41:35.588Z,99.90
2022-09-12T06:44:03.118Z,99.90
2022-09-12T06:46:31.191Z,99.90
2022-09-12T06:49:00.552Z,99.90
2022-09-12T06:51:28.399Z,99.90
2022-09-12T06:53:57.060Z,99.90
2022-09-12T06:56:26.556Z,99.90
2022-09-12T06:58:55.374Z,99.90
2022-09-12T07:01:27.411Z,99.90
2022-09-12T07:03:59.985Z,99.90
2022-09-12T07:06:31.932Z,99.90
2022-09-12T07:09:00.475Z,99.90
2022-09-12T07:11:31.598Z,99.90
2022-09-12T07:13:59.868Z,99.90
2022-09-12T07:16:26.711Z,99.90
2022-09-12T07:18:55.336Z,99.90
2022-09-12T07:21:22.686Z,99.90
2022-09-12T07:23:49.739Z,99.90
2022-09-12T07:26:16.737Z,99.90
2022-09-12T07:28:44.163Z,99.90
2022-09-12T07:31:18.621Z,99.90
2022-09-12T07:33:45.339Z,99.90
2022-09-12T07:36:14.935Z,99.90
2022-09-12T07:38:42.625Z,99.90
2022-09-12T07:41:17.305Z,99.90
2022-09-12T07:43:44.087Z,99.90
2022-09-12T07:46:11.440Z,99.90
2022-09-12T07:48:39.173Z,99.90
2022-09-12T07:51:08.418Z,99.90
2022-09-12T07:53:38.263Z,99.90
2022-09-12T07:56:06.289Z,99.90
2022-09-12T07:58:34.985Z,99.90
2022-09-12T08:01:07.257Z,99.90
2022-09-12T08:03:34.935Z,99.90
2022-09-12T08:06:10.189Z,99.90
2022-09-12T08:08:38.380Z,99.90
2022-09-12T08:11:08.293Z,99.50
2022-09-12T08:13:36.655Z,99.60
2022-09-12T08:16:11.889Z,99.30
2022-09-12T08:18:39.174Z,98.90
2022-09-12T08:21:12.173Z,99.30
2022-09-12T08:23:38.774Z,99.50
2022-09-12T08:26:06.594Z,99.10
2022-09-12T08:28:34.953Z,98.60
2022-09-12T08:31:07.076Z,98.80
2022-09-12T08:33:34.445Z,98.20
2022-09-12T08:36:20.311Z,98.40
2022-09-12T08:38:49.437Z,98.50
2022-09-12T08:41:18.996Z,97.90
2022-09-12T08:44:18.667Z,97.90
2022-09-12T08:47:08.366Z,97.70
2022-09-12T08:49:41.353Z,97.60
2022-09-12T08:52:41.844Z,97.50
2022-09-12T08:55:25.494Z,97.20
2022-09-12T08:57:53.056Z,97.10
2022-09-12T09:00:21.433Z,96.90
2022-09-12T09:03:22.948Z,96.90
2022-09-12T09:06:25.847Z,96.30
2022-09-12T09:09:00.153Z,96.40
2022-09-12T09:12:00.577Z,96.10
2022-09-12T09:15:01.393Z,96.40
2022-09-12T09:17:45.258Z,96.40
2022-09-12T09:20:28.744Z,96.20
2022-09-12T09:23:06.138Z,96.00
2022-09-12T09:25:42.593Z,95.80
2022-09-12T09:28:29.181Z,95.50
2022-09-12T09:30:56.414Z,95.30
2022-09-12T09:33:26.221Z,95.00
2022-09-12T09:36:20.736Z,95.30
2022-09-12T09:39:02.921Z,95.30
2022-09-12T09:41:59.506Z,95.20
2022-09-12T09:44:29.451Z,95.00
2022-09-12T09:46:59.649Z,94.60
2022-09-12T09:49:30.356Z,94.40
2022-09-12T09:52:00.574Z,94.70
2022-09-12T09:54:33.537Z,94.50
2022-09-12T09:57:00.161Z,95.10
2022-09-12T09:59:33.775Z,94.80
2022-09-12T10:02:24.294Z,94.80
2022-09-12T10:04:57.562Z,95.00
2022-09-12T10:07:26.220Z,94.90
2022-09-12T10:10:14.251Z,95.30
2022-09-12T10:12:41.653Z,95.30
2022-09-12T10:15:26.227Z,95.20
2022-09-12T10:17:54.744Z,94.70
2022-09-12T10:20:36.548Z,94.70
2022-09-12T10:23:37.213Z,94.60
2022-09-12T10:26:09.518Z,94.50
2022-09-12T10:28:37.755Z,94.30
2022-09-12T10:31:05.647Z,94.10
2022-09-12T10:33:45.272Z,93.20
2022-09-12T10:36:11.986Z,93.70
2022-09-12T10:38:39.182Z,93.70
2022-09-12T10:41:09.540Z,94.00
2022-09-12T10:43:38.241Z,93.70
2022-09-12T10:46:20.104Z,93.40
2022-09-12T10:49:08.130Z,93.20
2022-09-12T10:51:34.867Z,93.80
2022-09-12T10:54:04.626Z,93.70
2022-09-12T10:56:34.676Z,93.00
2022-09-12T10:59:20.378Z,93.30
2022-09-12T11:01:50.673Z,93.30
2022-09-12T11:04:46.128Z,92.90
2022-09-12T11:07:31.105Z,92.80
2022-09-12T11:10:26.847Z,92.60
2022-09-12T11:13:19.652Z,93.00
2022-09-12T11:16:23.033Z,93.30
2022-09-12T11:19:06.274Z,93.00
2022-09-12T11:22:06.638Z,93.00
2022-09-12T11:25:01.314Z,92.80
2022-09-12T11:27:48.257Z,92.70
2022-09-12T11:30:17.330Z,92.40
2022-09-12T11:33:05.556Z,92.40
2022-09-12T11:35:42.347Z,92.10
2022-09-12T11:38:40.184Z,92.60
2022-09-12T11:41:17.435Z,91.50
2022-09-12T11:43:50.333Z,92.20
2022-09-12T11:46:38.969Z,91.80
2022-09-12T11:49:12.353Z,92.10
2022-09-12T11:51:42.344Z,92.20
2022-09-12T11:54:18.266Z,92.20
2022-09-12T11:56:47.902Z,92.30
2022-09-12T11:59:40.654Z,92.50
2022-09-12T12:02:13.104Z,91.70
2022-09-12T12:04:52.105Z,91.60
2022-09-12T12:07:19.522Z,92.00
2022-09-12T12:09:51.579Z,91.70
2022-09-12T12:12:25.468Z,92.00
2022-09-12T12:14:54.716Z,91.30
2022-09-12T12:17:24.230Z,91.90
2022-09-12T12:20:05.570Z,92.00
2022-09-12T12:22:34.310Z,91.80
2022-09-12T12:25:12.568Z,91.10
2022-09-12T12:28:01.307Z,91.40
2022-09-12T12:30:30.963Z,91.70
2022-09-12T12:33:13.070Z,91.60
2022-09-12T12:35:46.305Z,91.80
2022-09-12T12:38:38.299Z,91.50
2022-09-12T12:41:17.214Z,91.30
2022-09-12T12:43:45.431Z,90.90
2022-09-12T12:46:17.496Z,91.60
2022-09-12T12:48:58.330Z,91.30
2022-09-12T12:51:30.949Z,91.70
2022-09-12T12:54:00.431Z,91.70
2022-09-12T12:56:42.130Z,91.10
2022-09-12T12:59:20.625Z,91.60
2022-09-12T13:01:55.205Z,91.60
2022-09-12T13:04:24.876Z,91.20
2022-09-12T13:07:07.739Z,91.50
2022-09-12T13:09:44.059Z,91.10
2022-09-12T13:12:21.545Z,91.50
2022-09-12T13:14:54.752Z,91.60
2022-09-12T13:17:43.991Z,90.90
2022-09-12T13:20:29.601Z,91.00
2022-09-12T13:22:57.530Z,90.90
2022-09-12T13:25:31.622Z,90.90
2022-09-12T13:27:59.115Z,90.70
2022-09-12T13:30:27.074Z,90.90
2022-09-12T13:32:53.982Z,90.40
2022-09-12T13:35:46.958Z,90.30
2022-09-12T13:38:40.224Z,90.20
2022-09-12T13:41:41.327Z,90.70
2022-09-12T13:44:14.910Z,90.30
2022-09-12T13:46:41.916Z,90.70
2022-09-12T13:49:29.922Z,90.70
2022-09-12T13:52:02.739Z,90.80
2022-09-12T13:54:30.886Z,90.50
2022-09-12T13:56:57.623Z,90.30
2022-09-12T13:59:25.201Z,90.00
2022-09-12T14:01:52.149Z,90.00
2022-09-12T14:04:40.393Z,90.60
2022-09-12T14:07:20.180Z,90.40
2022-09-12T14:09:54.348Z,90.40
2022-09-12T14:12:40.615Z,90.20
2022-09-12T14:15:15.963Z,90.00
2022-09-12T14:17:52.100Z,90.20
2022-09-12T14:20:20.871Z,89.80
2022-09-12T14:22:51.025Z,89.90
2022-09-12T14:25:20.444Z,88.50
2022-09-12T14:27:53.927Z,88.10
2022-09-12T14:30:24.215Z,88.70
2022-09-12T14:33:19.428Z,89.50
2022-09-12T14:35:51.968Z,89.00
2022-09-12T14:38:36.554Z,87.90
2022-09-12T14:41:08.271Z,87.70
2022-09-12T14:43:37.653Z,87.70
2022-09-12T14:46:17.049Z,87.70
2022-09-12T14:48:48.776Z,88.20
2022-09-12T14:51:27.250Z,89.30
2022-09-12T14:53:54.021Z,88.60
2022-09-12T14:56:22.419Z,88.00
2022-09-12T14:58:49.603Z,87.80
2022-09-12T15:01:22.833Z,87.60
2022-09-12T15:03:53.293Z,87.60
2022-09-12T15:06:25.500Z,87.60
2022-09-12T15:08:54.847Z,87.60
2022-09-12T15:11:21.733Z,88.20
2022-09-12T15:13:48.573Z,88.40
2022-09-12T15:16:16.113Z,88.70
2022-09-12T15:18:43.125Z,89.20
2022-09-12T15:21:16.161Z,88.50
2022-09-12T15:23:46.998Z,89.10
2022-09-12T15:26:19.188Z,88.30
2022-09-12T15:28:46.546Z,88.80
2022-09-12T15:31:31.129Z,89.00
2022-09-12T15:33:59.811Z,88.80
2022-09-12T15:36:28.506Z,88.90
2022-09-12T15:38:55.307Z,89.40
2022-09-12T15:41:36.808Z,89.30
2022-09-12T15:44:05.386Z,88.90
2022-09-12T15:46:32.149Z,87.70
2022-09-12T15:48:58.965Z,88.00
2022-09-12T15:51:25.639Z,89.10
2022-09-12T15:53:52.649Z,89.40
2022-09-12T15:56:26.601Z,89.60
2022-09-12T15:59:00.503Z,89.40
2022-09-12T16:01:28.663Z,89.60
2022-09-12T16:03:55.675Z,89.30
2022-09-12T16:06:23.153Z,89.50
2022-09-12T16:08:49.755Z,89.70
2022-09-12T16:11:25.764Z,89.90
2022-09-12T16:13:53.740Z,90.20
2022-09-12T16:16:20.613Z,90.30
2022-09-12T16:18:47.393Z,90.40
2022-09-12T16:21:15.480Z,90.40
2022-09-12T16:23:43.779Z,90.30
2022-09-12T16:26:10.594Z,90.40
2022-09-12T16:28:37.458Z,90.10
2022-09-12T16:31:06.332Z,90.30
2022-09-12T16:33:33.594Z,90.30
2022-09-12T16:36:12.487Z,90.10
2022-09-12T16:38:48.941Z,90.10
2022-09-12T16:41:17.673Z,90.00
2022-09-12T16:43:44.361Z,90.10
2022-09-12T16:46:13.298Z,90.20
2022-09-12T16:48:50.941Z,90.10
2022-09-12T16:51:21.055Z,90.40
2022-09-12T16:53:48.227Z,90.30
2022-09-12T16:56:15.368Z,90.60
2022-09-12T16:58:42.494Z,90.60
2022-09-12T17:01:11.951Z,90.80
2022-09-12T17:03:38.949Z,90.60
2022-09-12T17:06:09.805Z,90.60
2022-09-12T17:08:41.578Z,90.80
2022-09-12T17:11:13.618Z,90.80
2022-09-12T17:14:03.106Z,91.00
2022-09-12T17:16:28.278Z,90.90
2022-09-12T17:18:55.019Z,91.10
2022-09-12T17:21:22.608Z,91.00
2022-09-12T17:23:49.802Z,91.10
2022-09-12T17:26:16.904Z,91.30
2022-09-12T17:28:43.988Z,91.30
2022-09-12T17:31:13.107Z,91.50
2022-09-12T17:33:40.456Z,91.30
2022-09-12T17:36:16.569Z,91.50
2022-09-12T17:38:45.471Z,91.70
2022-09-12T17:41:17.905Z,91.80
2022-09-12T17:43:55.606Z,91.80
2022-09-12T17:46:34.712Z,91.90
2022-09-12T17:49:02.582Z,92.10
2022-09-12T17:51:31.118Z,92.10
2022-09-12T17:54:01.934Z,92.20
2022-09-12T17:56:30.719Z,92.30
2022-09-12T17:58:58.568Z,92.40
2022-09-12T18:01:45.035Z,92.40
2022-09-12T18:04:11.881Z,92.40
2022-09-12T18:06:40.073Z,92.60
2022-09-12T18:09:09.593Z,92.50
2022-09-12T18:11:36.507Z,92.70
2022-09-12T18:14:03.287Z,92.70
2022-09-12T18:16:31.417Z,92.70
2022-09-12T18:19:01.554Z,92.80
2022-09-12T18:21:29.160Z,92.80
2022-09-12T18:23:58.949Z,92.50
2022-09-12T18:26:27.012Z,92.80
2022-09-12T18:28:53.938Z,92.90
2022-09-12T18:31:23.477Z,92.80
2022-09-12T18:33:50.858Z,92.70
2022-09-12T18:36:18.433Z,92.80
2022-09-12T18:38:45.602Z,92.80
2022-09-12T18:41:20.909Z,92.80
2022-09-12T18:43:48.459Z,92.90
2022-09-12T18:46:18.711Z,93.00
2022-09-12T18:48:46.158Z,93.20
2022-09-12T18:51:15.479Z,93.20
2022-09-12T18:53:42.968Z,93.20
2022-09-12T18:56:12.463Z,93.20
2022-09-12T18:58:41.448Z,93.20
2022-09-12T19:01:16.000Z,93.30
2022-09-12T19:03:43.399Z,93.30
2022-09-12T19:06:17.719Z,93.30
2022-09-12T19:08:44.819Z,93.30
2022-09-12T19:11:11.719Z,93.40
2022-09-12T19:13:41.367Z,93.30
2022-09-12T19:16:10.755Z,93.40
2022-09-12T19:18:38.886Z,93.30
2022-09-12T19:21:06.416Z,93.30
2022-09-12T19:23:34.514Z,93.50
2022-09-12T19:26:04.433Z,93.60
2022-09-12T19:28:31.563Z,93.70
2022-09-12T19:30:58.615Z,93.70
2022-09-12T19:33:25.901Z,93.70
2022-09-12T19:35:52.497Z,93.90
2022-09-12T19:38:19.351Z,93.90
2022-09-12T19:40:59.592Z,93.90
2022-09-12T19:43:26.394Z,94.00
2022-09-12T19:45:54.699Z,94.10
2022-09-12T19:48:21.897Z,94.20
2022-09-12T19:50:49.255Z,94.50
2022-09-12T19:53:16.626Z,94.20
2022-09-12T19:55:45.153Z,94.20
2022-09-12T19:58:13.269Z,94.40
2022-09-12T20:00:40.245Z,94.50
2022-09-12T20:03:06.854Z,94.40
2022-09-12T20:05:33.663Z,94.50
2022-09-12T20:08:00.758Z,94.50
2022-09-12T20:10:27.519Z,94.40
2022-09-12T20:12:54.135Z,94.50
2022-09-12T20:15:22.310Z,94.50
2022-09-12T20:17:53.984Z,94.60
2022-09-12T20:20:20.582Z,94.60
2022-09-12T20:22:51.230Z,94.70
2022-09-12T20:25:19.938Z,94.60
2022-09-12T20:27:48.038Z,94.80
2022-09-12T20:30:15.375Z,94.90
2022-09-12T20:32:43.037Z,95.00
2022-09-12T20:35:09.965Z,94.80
2022-09-12T20:37:37.099Z,94.90
2022-09-12T20:40:04.592Z,94.90
2022-09-12T20:42:31.262Z,95.10
2022-09-12T20:44:57.890Z,95.00
2022-09-12T20:47:24.506Z,94.90
2022-09-12T20:49:51.088Z,94.90
2022-09-12T20:52:17.691Z,95.20
2022-09-12T20:54:44.319Z,94.80
2022-09-12T20:57:10.914Z,94.90
2022-09-12T20:59:40.427Z,94.90
2022-09-12T21:02:07.129Z,95.00
2022-09-12T21:04:33.836Z,95.00
2022-09-12T21:07:00.454Z,95.10
2022-09-12T21:09:27.098Z,95.10
2022-09-12T21:11:53.693Z,94.90
2022-09-12T21:14:20.291Z,95.20
2022-09-12T21:16:46.899Z,95.20
2022-09-12T21:19:13.851Z,95.20
2022-09-12T21:21:40.476Z,95.30
2022-09-12T21:24:07.229Z,95.20
2022-09-12T21:26:33.927Z,95.30
2022-09-12T21:29:00.609Z,95.30
2022-09-12T21:31:27.314Z,95.50
2022-09-12T21:33:54.017Z,95.40
2022-09-12T21:36:20.653Z,95.30
2022-09-12T21:38:47.330Z,95.30
2022-09-12T21:41:16.349Z,95.40
2022-09-12T21:43:43.798Z,95.10
2022-09-12T21:46:11.421Z,95.30
2022-09-12T21:48:38.288Z,95.20
2022-09-12T21:51:05.155Z,95.20
2022-09-12T21:53:32.127Z,95.10
2022-09-12T21:56:07.390Z,95.20
2022-09-12T21:58:34.793Z,95.00
2022-09-12T22:01:01.642Z,95.10
2022-09-12T22:03:29.071Z,95.10
2022-09-12T22:06:04.701Z,94.90
2022-09-12T22:08:33.437Z,95.00
2022-09-12T22:11:02.015Z,95.10
2022-09-12T22:13:33.673Z,95.10
2022-09-12T22:16:02.806Z,95.20
2022-09-12T22:18:32.255Z,94.90
2022-09-12T22:21:03.140Z,95.10
2022-09-12T22:23:48.534Z,95.10
2022-09-12T22:26:15.540Z,95.20
2022-09-12T22:28:43.900Z,95.30
2022-09-12T22:31:12.143Z,95.10
2022-09-12T22:33:39.947Z,95.10
2022-09-12T22:36:07.309Z,95.10
2022-09-12T22:38:34.316Z,95.10
2022-09-12T22:41:06.051Z,95.10
2022-09-12T22:43:34.193Z,95.00
2022-09-12T22:46:00.994Z,95.10
2022-09-12T22:48:28.094Z,95.20
2022-09-12T22:50:54.666Z,95.20
2022-09-12T22:53:21.321Z,95.20
2022-09-12T22:55:48.042Z,95.10
2022-09-12T22:58:14.889Z,95.20
2022-09-12T23:00:46.285Z,95.20
2022-09-12T23:03:12.987Z,95.20
2022-09-12T23:05:40.110Z,95.20
2022-09-12T23:08:06.745Z,95.30
2022-09-12T23:10:36.078Z,95.20
2022-09-12T23:13:02.745Z,95.20
2022-09-12T23:15:29.322Z,95.10
2022-09-12T23:17:55.918Z,95.10
2022-09-12T23:20:22.533Z,95.00
2022-09-12T23:22:49.213Z,94.90
2022-09-12T23:25:16.072Z,95.00
2022-09-12T23:27:43.261Z,94.80
2022-09-12T23:30:11.105Z,95.20
2022-09-12T23:32:37.703Z,95.00
2022-09-12T23:35:04.609Z,95.20
2022-09-12T23:37:31.242Z,95.30
2022-09-12T23:39:57.915Z,95.40
2022-09-12T23:42:24.685Z,95.60
2022-09-12T23:44:51.391Z,95.80
2022-09-12T23:47:18.390Z,95.80
2022-09-12T23:49:45.793Z,95.90
2022-09-12T23:52:12.393Z,96.00
2022-09-12T23:54:39.109Z,96.10
2022-09-12T23:57:05.704Z,96.10
2022-09-12T23:59:32.338Z,96.00
